sensor_id;sensor_type;location;lat;lon;timestamp;temperature;humidity
6664;DHT22;58749;48.022;10.922;2022-08-21T00:02:13;17.20;99.90
6664;DHT22;58749;48.022;10.922;2022-08-21T00:04:42;17.20;99.90
6664;DHT22;58749;48.022;10.922;2022-08-21T00:07:22;17.20;99.90
6664;DHT22;58749;48.022;10.922;2022-08-21T00:09:53;17.20;99.90
6664;DHT22;58749;48.022;10.922;2022-08-21T00:12:21;17.10;99.90
6664;DHT22;58749;48.022;10.922;2022-08-21T00:14:50;17.20;99.90
6664;DHT22;58749;48.022;10.922;2022-08-21T00:17:42;17.20;99.90
6664;DHT22;58749;48.022;10.922;2022-08-21T00:20:14;17.20;99.90
6664;DHT22;58749;48.022;10.922;2022-08-21T00:22:43;17.10;99.90
6664;DHT22;58749;48.022;10.922;2022-08-21T00:25:12;17.10;99.90
6664;DHT22;58749;48.022;10.922;2022-08-21T00:27:41;17.10;99.90
6664;DHT22;58749;48.022;10.922;2022-08-21T00:30:13;17.10;99.90
6664;DHT22;58749;48.022;10.922;2022-08-21T00:32:50;17.10;99.90
6664;DHT22;58749;48.022;10.922;2022-08-21T00:35:23;17.10;99.90
6664;DHT22;58749;48.022;10.922;2022-08-21T00:37:52;17.10;99.90
6664;DHT22;58749;48.022;10.922;2022-08-21T00:40:24;17.00;99.90
6664;DHT22;58749;48.022;10.922;2022-08-21T00:42:52;17.00;99.90
6664;DHT22;58749;48.022;10.922;2022-08-21T00:45:23;16.90;99.90
6664;DHT22;58749;48.022;10.922;2022-08-21T00:47:52;17.00;99.90
6664;DHT22;58749;48.022;10.922;2022-08-21T00:50:22;17.00;99.90
6664;DHT22;58749;48.022;10.922;2022-08-21T00:52:53;17.00;99.90
6664;DHT22;58749;48.022;10.922;2022-08-21T00:55:23;17.00;99.90
6664;DHT22;58749;48.022;10.922;2022-08-21T00:57:54;17.00;99.90
6664;DHT22;58749;48.022;10.922;2022-08-21T01:00:28;17.00;99.90
6664;DHT22;58749;48.022;10.922;2022-08-21T01:02:58;16.90;99.90
6664;DHT22;58749;48.022;10.922;2022-08-21T01:05:27;16.90;99.90
6664;DHT22;58749;48.022;10.922;2022-08-21T01:07:55;17.00;99.90
6664;DHT22;58749;48.022;10.922;2022-08-21T01:10:24;17.00;99.90
6664;DHT22;58749;48.022;10.922;2022-08-21T01:12:54;17.00;99.90
6664;DHT22;58749;48.022;10.922;2022-08-21T01:15:29;17.00;99.90
6664;DHT22;58749;48.022;10.922;2022-08-21T01:17:58;17.00;99.90
6664;DHT22;58749;48.022;10.922;2022-08-21T01:20:26;16.90;99.90
6664;DHT22;58749;48.022;10.922;2022-08-21T01:23:00;16.80;99.90
6664;DHT22;58749;48.022;10.922;2022-08-21T01:25:29;16.80;99.90
6664;DHT22;58749;48.022;10.922;2022-08-21T01:28:00;16.70;99.90
6664;DHT22;58749;48.022;10.922;2022-08-21T01:30:29;16.70;99.90
6664;DHT22;58749;48.022;10.922;2022-08-21T01:33:01;16.60;99.90
6664;DHT22;58749;48.022;10.922;2022-08-21T01:35:29;16.60;99.90
6664;DHT22;58749;48.022;10.922;2022-08-21T01:37:59;16.60;99.90
6664;DHT22;58749;48.022;10.922;2022-08-21T01:40:27;16.60;99.90
6664;DHT22;58749;48.022;10.922;2022-08-21T01:42:56;16.60;99.90
6664;DHT22;58749;48.022;10.922;2022-08-21T01:45:24;16.60;99.90
6664;DHT22;58749;48.022;10.922;2022-08-21T01:47:52;16.50;99.90
6664;DHT22;58749;48.022;10.922;2022-08-21T01:50:21;16.50;99.90
6664;DHT22;58749;48.022;10.922;2022-08-21T01:52:50;16.50;99.90
6664;DHT22;58749;48.022;10.922;2022-08-21T01:55:20;16.50;99.90
6664;DHT22;58749;48.022;10.922;2022-08-21T01:57:49;16.50;99.90
6664;DHT22;58749;48.022;10.922;2022-08-21T02:00:20;16.40;99.90
6664;DHT22;58749;48.022;10.922;2022-08-21T02:02:49;16.20;99.90
6664;DHT22;58749;48.022;10.922;2022-08-21T02:05:19;16.30;99.90
6664;DHT22;58749;48.022;10.922;2022-08-21T02:07:49;16.20;99.90
6664;DHT22;58749;48.022;10.922;2022-08-21T02:10:22;16.20;99.90
6664;DHT22;58749;48.022;10.922;2022-08-21T02:12:50;16.10;99.90
6664;DHT22;58749;48.022;10.922;2022-08-21T02:15:19;16.10;99.90
6664;DHT22;58749;48.022;10.922;2022-08-21T02:17:50;16.00;99.90
6664;DHT22;58749;48.022;10.922;2022-08-21T02:20:22;16.00;99.90
6664;DHT22;58749;48.022;10.922;2022-08-21T02:22:50;16.00;99.90
6664;DHT22;58749;48.022;10.922;2022-08-21T02:25:21;15.90;99.90
6664;DHT22;58749;48.022;10.922;2022-08-21T02:27:50;15.90;99.90
6664;DHT22;58749;48.022;10.922;2022-08-21T02:30:20;15.90;99.90
6664;DHT22;58749;48.022;10.922;2022-08-21T02:32:49;15.90;99.90
6664;DHT22;58749;48.022;10.922;2022-08-21T02:35:18;15.90;99.90
6664;DHT22;58749;48.022;10.922;2022-08-21T02:37:50;15.90;99.90
6664;DHT22;58749;48.022;10.922;2022-08-21T02:40:22;16.00;99.90
6664;DHT22;58749;48.022;10.922;2022-08-21T02:42:51;16.00;99.90
6664;DHT22;58749;48.022;10.922;2022-08-21T02:45:19;16.20;99.90
6664;DHT22;58749;48.022;10.922;2022-08-21T02:47:48;16.20;99.90
6664;DHT22;58749;48.022;10.922;2022-08-21T02:50:19;16.30;99.90
6664;DHT22;58749;48.022;10.922;2022-08-21T02:52:48;16.40;99.90
6664;DHT22;58749;48.022;10.922;2022-08-21T02:55:24;16.50;99.90
6664;DHT22;58749;48.022;10.922;2022-08-21T02:57:54;16.60;99.90
6664;DHT22;58749;48.022;10.922;2022-08-21T03:00:24;16.70;99.90
6664;DHT22;58749;48.022;10.922;2022-08-21T03:02:53;16.80;99.90
6664;DHT22;58749;48.022;10.922;2022-08-21T03:05:24;16.80;99.90
6664;DHT22;58749;48.022;10.922;2022-08-21T03:07:52;16.80;99.90
6664;DHT22;58749;48.022;10.922;2022-08-21T03:10:22;16.80;99.90
6664;DHT22;58749;48.022;10.922;2022-08-21T03:12:52;16.70;99.90
6664;DHT22;58749;48.022;10.922;2022-08-21T03:15:23;16.70;99.90
6664;DHT22;58749;48.022;10.922;2022-08-21T03:17:52;16.60;99.90
6664;DHT22;58749;48.022;10.922;2022-08-21T03:20:23;16.50;99.90
6664;DHT22;58749;48.022;10.922;2022-08-21T03:22:52;16.60;99.90
6664;DHT22;58749;48.022;10.922;2022-08-21T03:25:22;16.60;99.90
6664;DHT22;58749;48.022;10.922;2022-08-21T03:28:08;16.70;99.90
6664;DHT22;58749;48.022;10.922;2022-08-21T03:30:38;16.80;99.90
6664;DHT22;58749;48.022;10.922;2022-08-21T03:33:07;16.80;99.90
6664;DHT22;58749;48.022;10.922;2022-08-21T03:35:39;16.80;99.90
6664;DHT22;58749;48.022;10.922;2022-08-21T03:38:08;16.80;99.90
6664;DHT22;58749;48.022;10.922;2022-08-21T03:40:38;16.90;99.90
6664;DHT22;58749;48.022;10.922;2022-08-21T03:43:06;16.80;99.90
6664;DHT22;58749;48.022;10.922;2022-08-21T03:45:36;16.80;99.90
6664;DHT22;58749;48.022;10.922;2022-08-21T03:48:05;16.90;99.90
6664;DHT22;58749;48.022;10.922;2022-08-21T03:50:38;16.80;99.90
6664;DHT22;58749;48.022;10.922;2022-08-21T03:53:07;16.80;99.90
6664;DHT22;58749;48.022;10.922;2022-08-21T03:55:46;16.80;99.90
6664;DHT22;58749;48.022;10.922;2022-08-21T03:58:16;16.80;99.90
6664;DHT22;58749;48.022;10.922;2022-08-21T04:00:49;16.80;99.90
6664;DHT22;58749;48.022;10.922;2022-08-21T04:03:18;16.80;99.90
6664;DHT22;58749;48.022;10.922;2022-08-21T04:05:47;16.90;99.90
6664;DHT22;58749;48.022;10.922;2022-08-21T04:08:21;16.90;99.90
6664;DHT22;58749;48.022;10.922;2022-08-21T04:10:52;16.90;99.90
6664;DHT22;58749;48.022;10.922;2022-08-21T04:13:21;16.90;99.90
6664;DHT22;58749;48.022;10.922;2022-08-21T04:15:50;16.90;99.90
6664;DHT22;58749;48.022;10.922;2022-08-21T04:18:18;16.90;99.90
6664;DHT22;58749;48.022;10.922;2022-08-21T04:20:49;16.90;99.90
6664;DHT22;58749;48.022;10.922;2022-08-21T04:23:17;16.90;99.90
6664;DHT22;58749;48.022;10.922;2022-08-21T04:25:52;16.90;99.90
6664;DHT22;58749;48.022;10.922;2022-08-21T04:28:21;16.90;99.90
6664;DHT22;58749;48.022;10.922;2022-08-21T04:30:55;16.90;99.90
6664;DHT22;58749;48.022;10.922;2022-08-21T04:33:24;16.90;99.90
6664;DHT22;58749;48.022;10.922;2022-08-21T04:35:52;16.90;99.90
6664;DHT22;58749;48.022;10.922;2022-08-21T04:38:20;16.90;99.90
6664;DHT22;58749;48.022;10.922;2022-08-21T04:40:53;16.90;99.90
6664;DHT22;58749;48.022;10.922;2022-08-21T04:43:24;16.90;99.90
6664;DHT22;58749;48.022;10.922;2022-08-21T04:45:53;16.90;99.90
6664;DHT22;58749;48.022;10.922;2022-08-21T04:48:22;16.90;99.90
6664;DHT22;58749;48.022;10.922;2022-08-21T04:50:56;16.90;99.90
6664;DHT22;58749;48.022;10.922;2022-08-21T04:53:34;16.90;99.90
6664;DHT22;58749;48.022;10.922;2022-08-21T04:56:25;16.90;99.90
6664;DHT22;58749;48.022;10.922;2022-08-21T04:59:18;17.00;99.90
6664;DHT22;58749;48.022;10.922;2022-08-21T05:01:51;16.90;99.90
6664;DHT22;58749;48.022;10.922;2022-08-21T05:04:23;16.90;99.90
6664;DHT22;58749;48.022;10.922;2022-08-21T05:06:53;16.90;99.90
6664;DHT22;58749;48.022;10.922;2022-08-21T05:09:23;17.00;99.90
6664;DHT22;58749;48.022;10.922;2022-08-21T05:11:56;16.90;99.90
6664;DHT22;58749;48.022;10.922;2022-08-21T05:14:25;17.00;99.90
6664;DHT22;58749;48.022;10.922;2022-08-21T05:16:54;17.00;99.90
6664;DHT22;58749;48.022;10.922;2022-08-21T05:19:22;17.00;99.90
6664;DHT22;58749;48.022;10.922;2022-08-21T05:21:50;17.00;99.90
6664;DHT22;58749;48.022;10.922;2022-08-21T05:24:19;17.00;99.90
6664;DHT22;58749;48.022;10.922;2022-08-21T05:26:47;17.00;99.90
6664;DHT22;58749;48.022;10.922;2022-08-21T05:29:18;17.00;99.90
6664;DHT22;58749;48.022;10.922;2022-08-21T05:31:48;16.90;99.90
6664;DHT22;58749;48.022;10.922;2022-08-21T05:34:20;16.80;99.90
6664;DHT22;58749;48.022;10.922;2022-08-21T05:36:48;16.70;99.90
6664;DHT22;58749;48.022;10.922;2022-08-21T05:39:17;16.70;99.90
6664;DHT22;58749;48.022;10.922;2022-08-21T05:41:45;16.70;99.90
6664;DHT22;58749;48.022;10.922;2022-08-21T05:44:18;16.70;99.90
6664;DHT22;58749;48.022;10.922;2022-08-21T05:46:51;16.60;99.90
6664;DHT22;58749;48.022;10.922;2022-08-21T05:49:19;16.60;99.90
6664;DHT22;58749;48.022;10.922;2022-08-21T05:51:47;16.50;99.90
6664;DHT22;58749;48.022;10.922;2022-08-21T05:54:15;16.50;99.90
6664;DHT22;58749;48.022;10.922;2022-08-21T05:56:44;16.50;99.90
6664;DHT22;58749;48.022;10.922;2022-08-21T05:59:12;16.60;99.90
6664;DHT22;58749;48.022;10.922;2022-08-21T06:01:42;16.60;99.90
6664;DHT22;58749;48.022;10.922;2022-08-21T06:04:12;16.70;99.90
6664;DHT22;58749;48.022;10.922;2022-08-21T06:06:41;16.70;99.90
6664;DHT22;58749;48.022;10.922;2022-08-21T06:09:09;16.70;99.90
6664;DHT22;58749;48.022;10.922;2022-08-21T06:11:38;16.70;99.90
6664;DHT22;58749;48.022;10.922;2022-08-21T06:14:06;16.80;99.90
6664;DHT22;58749;48.022;10.922;2022-08-21T06:16:34;16.80;99.90
6664;DHT22;58749;48.022;10.922;2022-08-21T06:19:04;16.80;99.90
6664;DHT22;58749;48.022;10.922;2022-08-21T06:21:32;16.80;99.90
6664;DHT22;58749;48.022;10.922;2022-08-21T06:24:00;16.90;99.90
6664;DHT22;58749;48.022;10.922;2022-08-21T06:26:28;17.00;99.90
6664;DHT22;58749;48.022;10.922;2022-08-21T06:28:57;17.10;99.90
6664;DHT22;58749;48.022;10.922;2022-08-21T06:31:27;17.10;99.90
6664;DHT22;58749;48.022;10.922;2022-08-21T06:33:56;17.20;99.90
6664;DHT22;58749;48.022;10.922;2022-08-21T06:36:26;17.20;99.90
6664;DHT22;58749;48.022;10.922;2022-08-21T06:38:54;17.20;99.90
6664;DHT22;58749;48.022;10.922;2022-08-21T06:41:23;17.30;99.90
6664;DHT22;58749;48.022;10.922;2022-08-21T06:43:53;17.40;99.90
6664;DHT22;58749;48.022;10.922;2022-08-21T06:46:26;17.40;99.90
6664;DHT22;58749;48.022;10.922;2022-08-21T06:48:57;17.40;99.90
6664;DHT22;58749;48.022;10.922;2022-08-21T06:51:27;17.40;99.90
6664;DHT22;58749;48.022;10.922;2022-08-21T06:53:55;17.50;99.90
6664;DHT22;58749;48.022;10.922;2022-08-21T06:56:25;17.50;99.90
6664;DHT22;58749;48.022;10.922;2022-08-21T06:58:53;17.60;99.90
6664;DHT22;58749;48.022;10.922;2022-08-21T07:01:26;17.60;99.90
6664;DHT22;58749;48.022;10.922;2022-08-21T07:03:54;17.70;99.90
6664;DHT22;58749;48.022;10.922;2022-08-21T07:06:23;17.70;99.90
6664;DHT22;58749;48.022;10.922;2022-08-21T07:08:52;17.80;99.90
6664;DHT22;58749;48.022;10.922;2022-08-21T07:11:25;17.80;99.90
6664;DHT22;58749;48.022;10.922;2022-08-21T07:13:53;17.80;99.90
6664;DHT22;58749;48.022;10.922;2022-08-21T07:16:23;17.90;99.90
6664;DHT22;58749;48.022;10.922;2022-08-21T07:18:57;17.90;99.90
6664;DHT22;58749;48.022;10.922;2022-08-21T07:21:30;18.00;99.90
6664;DHT22;58749;48.022;10.922;2022-08-21T07:24:02;18.00;99.90
6664;DHT22;58749;48.022;10.922;2022-08-21T07:26:31;18.00;99.90
6664;DHT22;58749;48.022;10.922;2022-08-21T07:28:59;18.10;99.90
6664;DHT22;58749;48.022;10.922;2022-08-21T07:31:34;18.10;99.90
6664;DHT22;58749;48.022;10.922;2022-08-21T07:34:02;18.20;99.90
6664;DHT22;58749;48.022;10.922;2022-08-21T07:36:30;18.20;99.90
6664;DHT22;58749;48.022;10.922;2022-08-21T07:39:02;18.30;99.90
6664;DHT22;58749;48.022;10.922;2022-08-21T07:41:31;18.40;99.90
6664;DHT22;58749;48.022;10.922;2022-08-21T07:44:01;18.50;99.90
6664;DHT22;58749;48.022;10.922;2022-08-21T07:46:41;18.50;99.90
6664;DHT22;58749;48.022;10.922;2022-08-21T07:49:11;18.60;99.90
6664;DHT22;58749;48.022;10.922;2022-08-21T07:55:34;18.80;99.90
6664;DHT22;58749;48.022;10.922;2022-08-21T07:58:03;18.80;99.90
6664;DHT22;58749;48.022;10.922;2022-08-21T08:00:31;18.90;99.90
6664;DHT22;58749;48.022;10.922;2022-08-21T08:03:08;18.90;99.90
6664;DHT22;58749;48.022;10.922;2022-08-21T08:05:37;19.00;99.90
6664;DHT22;58749;48.022;10.922;2022-08-21T08:08:28;19.10;99.90
6664;DHT22;58749;48.022;10.922;2022-08-21T08:11:16;19.10;99.90
6664;DHT22;58749;48.022;10.922;2022-08-21T08:13:46;19.20;99.90
6664;DHT22;58749;48.022;10.922;2022-08-21T08:16:15;19.30;99.90
6664;DHT22;58749;48.022;10.922;2022-08-21T08:18:44;19.30;99.90
6664;DHT22;58749;48.022;10.922;2022-08-21T08:21:19;19.40;99.90
6664;DHT22;58749;48.022;10.922;2022-08-21T08:23:48;19.50;99.90
6664;DHT22;58749;48.022;10.922;2022-08-21T08:26:17;19.60;99.90
6664;DHT22;58749;48.022;10.922;2022-08-21T08:28:46;19.70;99.90
6664;DHT22;58749;48.022;10.922;2022-08-21T08:31:14;19.70;99.90
6664;DHT22;58749;48.022;10.922;2022-08-21T08:33:42;19.80;99.90
6664;DHT22;58749;48.022;10.922;2022-08-21T08:36:15;19.90;99.90
6664;DHT22;58749;48.022;10.922;2022-08-21T08:38:46;19.90;99.90
6664;DHT22;58749;48.022;10.922;2022-08-21T08:41:19;20.00;99.90
6664;DHT22;58749;48.022;10.922;2022-08-21T08:44:01;20.00;99.90
6664;DHT22;58749;48.022;10.922;2022-08-21T08:46:34;20.10;99.90
6664;DHT22;58749;48.022;10.922;2022-08-21T08:49:08;20.20;99.90
6664;DHT22;58749;48.022;10.922;2022-08-21T08:51:48;20.20;99.90
6664;DHT22;58749;48.022;10.922;2022-08-21T08:54:28;20.30;99.90
6664;DHT22;58749;48.022;10.922;2022-08-21T08:57:00;20.40;99.90
6664;DHT22;58749;48.022;10.922;2022-08-21T08:59:35;20.50;99.90
6664;DHT22;58749;48.022;10.922;2022-08-21T09:02:11;20.60;99.90
6664;DHT22;58749;48.022;10.922;2022-08-21T09:04:45;20.60;99.90
6664;DHT22;58749;48.022;10.922;2022-08-21T09:07:20;20.70;99.90
6664;DHT22;58749;48.022;10.922;2022-08-21T09:10:10;20.80;99.90
6664;DHT22;58749;48.022;10.922;2022-08-21T09:12:49;20.90;99.90
6664;DHT22;58749;48.022;10.922;2022-08-21T09:15:26;21.10;99.90
6664;DHT22;58749;48.022;10.922;2022-08-21T09:18:17;21.20;99.90
6664;DHT22;58749;48.022;10.922;2022-08-21T09:21:06;21.30;99.90
6664;DHT22;58749;48.022;10.922;2022-08-21T09:23:46;21.40;99.90
6664;DHT22;58749;48.022;10.922;2022-08-21T09:26:24;21.40;99.90
6664;DHT22;58749;48.022;10.922;2022-08-21T09:28:59;21.50;99.90
6664;DHT22;58749;48.022;10.922;2022-08-21T09:31:33;21.50;99.90
6664;DHT22;58749;48.022;10.922;2022-08-21T09:34:09;21.60;99.90
6664;DHT22;58749;48.022;10.922;2022-08-21T09:36:42;21.70;99.90
6664;DHT22;58749;48.022;10.922;2022-08-21T09:39:13;21.70;99.90
6664;DHT22;58749;48.022;10.922;2022-08-21T09:41:58;21.50;99.90
6664;DHT22;58749;48.022;10.922;2022-08-21T09:44:31;21.30;99.90
6664;DHT22;58749;48.022;10.922;2022-08-21T09:47:00;21.10;99.90
6664;DHT22;58749;48.022;10.922;2022-08-21T09:49:32;21.00;99.90
6664;DHT22;58749;48.022;10.922;2022-08-21T09:52:03;20.90;99.90
6664;DHT22;58749;48.022;10.922;2022-08-21T09:54:34;21.00;99.90
6664;DHT22;58749;48.022;10.922;2022-08-21T09:57:30;21.30;99.90
6664;DHT22;58749;48.022;10.922;2022-08-21T10:01:14;21.60;99.90
6664;DHT22;58749;48.022;10.922;2022-08-21T10:03:43;21.70;99.90
6664;DHT22;58749;48.022;10.922;2022-08-21T10:06:23;21.60;99.90
6664;DHT22;58749;48.022;10.922;2022-08-21T10:09:04;21.50;99.90
6664;DHT22;58749;48.022;10.922;2022-08-21T10:11:33;21.30;99.90
6664;DHT22;58749;48.022;10.922;2022-08-21T10:14:10;21.10;99.90
6664;DHT22;58749;48.022;10.922;2022-08-21T10:16:55;21.10;99.90
6664;DHT22;58749;48.022;10.922;2022-08-21T10:19:32;21.30;99.90
6664;DHT22;58749;48.022;10.922;2022-08-21T10:22:18;21.50;99.90
6664;DHT22;58749;48.022;10.922;2022-08-21T10:24:56;21.60;98.90
6664;DHT22;58749;48.022;10.922;2022-08-21T10:27:39;21.80;99.90
6664;DHT22;58749;48.022;10.922;2022-08-21T10:30:13;21.90;99.90
6664;DHT22;58749;48.022;10.922;2022-08-21T10:33:16;22.00;97.60
6664;DHT22;58749;48.022;10.922;2022-08-21T10:35:53;22.10;97.30
6664;DHT22;58749;48.022;10.922;2022-08-21T10:38:50;22.30;97.80
6664;DHT22;58749;48.022;10.922;2022-08-21T10:41:50;22.40;95.90
6664;DHT22;58749;48.022;10.922;2022-08-21T10:44:36;22.50;94.70
6664;DHT22;58749;48.022;10.922;2022-08-21T10:47:17;22.60;95.90
6664;DHT22;58749;48.022;10.922;2022-08-21T10:49:56;22.70;96.20
6664;DHT22;58749;48.022;10.922;2022-08-21T10:55:31;22.80;93.40
6664;DHT22;58749;48.022;10.922;2022-08-21T10:58:04;22.90;93.50
6664;DHT22;58749;48.022;10.922;2022-08-21T11:00:39;23.00;95.60
6664;DHT22;58749;48.022;10.922;2022-08-21T11:03:13;22.90;94.30
6664;DHT22;58749;48.022;10.922;2022-08-21T11:05:50;22.70;94.40
6664;DHT22;58749;48.022;10.922;2022-08-21T11:08:23;22.70;93.90
6664;DHT22;58749;48.022;10.922;2022-08-21T11:10:59;22.80;95.50
6664;DHT22;58749;48.022;10.922;2022-08-21T11:13:38;22.90;95.80
6664;DHT22;58749;48.022;10.922;2022-08-21T11:16:15;23.10;94.90
6664;DHT22;58749;48.022;10.922;2022-08-21T11:18:49;23.20;92.10
6664;DHT22;58749;48.022;10.922;2022-08-21T11:21:35;23.30;94.70
6664;DHT22;58749;48.022;10.922;2022-08-21T11:24:17;23.30;94.10
6664;DHT22;58749;48.022;10.922;2022-08-21T11:26:51;23.30;93.80
6664;DHT22;58749;48.022;10.922;2022-08-21T11:29:23;23.20;93.20
6664;DHT22;58749;48.022;10.922;2022-08-21T11:32:02;23.10;95.00
6664;DHT22;58749;48.022;10.922;2022-08-21T11:34:47;23.20;92.20
6664;DHT22;58749;48.022;10.922;2022-08-21T11:37:35;23.30;90.30
6664;DHT22;58749;48.022;10.922;2022-08-21T11:40:15;23.40;91.30
6664;DHT22;58749;48.022;10.922;2022-08-21T11:42:55;23.50;88.10
6664;DHT22;58749;48.022;10.922;2022-08-21T11:45:35;23.50;91.30
6664;DHT22;58749;48.022;10.922;2022-08-21T11:48:11;23.30;90.20
6664;DHT22;58749;48.022;10.922;2022-08-21T11:50:43;23.20;90.10
6664;DHT22;58749;48.022;10.922;2022-08-21T11:53:38;23.10;90.30
6664;DHT22;58749;48.022;10.922;2022-08-21T11:56:12;22.90;90.30
6664;DHT22;58749;48.022;10.922;2022-08-21T11:58:45;22.90;90.40
6664;DHT22;58749;48.022;10.922;2022-08-21T12:01:20;22.90;91.10
6664;DHT22;58749;48.022;10.922;2022-08-21T12:04:02;23.00;90.00
6664;DHT22;58749;48.022;10.922;2022-08-21T12:06:54;23.00;90.50
6664;DHT22;58749;48.022;10.922;2022-08-21T12:09:36;22.90;89.40
6664;DHT22;58749;48.022;10.922;2022-08-21T12:12:12;22.70;87.60
6664;DHT22;58749;48.022;10.922;2022-08-21T12:14:50;22.70;90.30
6664;DHT22;58749;48.022;10.922;2022-08-21T12:17:35;22.70;89.80
6664;DHT22;58749;48.022;10.922;2022-08-21T12:20:33;22.70;87.10
6664;DHT22;58749;48.022;10.922;2022-08-21T12:23:12;22.90;88.30
6664;DHT22;58749;48.022;10.922;2022-08-21T12:25:47;22.90;87.10
6664;DHT22;58749;48.022;10.922;2022-08-21T12:28:29;23.00;86.50
6664;DHT22;58749;48.022;10.922;2022-08-21T12:31:00;23.10;89.40
6664;DHT22;58749;48.022;10.922;2022-08-21T12:33:32;23.10;90.50
6664;DHT22;58749;48.022;10.922;2022-08-21T12:36:04;23.20;84.90
6664;DHT22;58749;48.022;10.922;2022-08-21T12:38:50;23.30;83.30
6664;DHT22;58749;48.022;10.922;2022-08-21T12:41:24;23.40;80.40
6664;DHT22;58749;48.022;10.922;2022-08-21T12:44:00;23.40;83.90
6664;DHT22;58749;48.022;10.922;2022-08-21T12:46:34;23.50;84.50
6664;DHT22;58749;48.022;10.922;2022-08-21T12:49:11;23.60;82.80
6664;DHT22;58749;48.022;10.922;2022-08-21T12:51:50;23.60;81.00
6664;DHT22;58749;48.022;10.922;2022-08-21T12:54:28;23.70;81.30
6664;DHT22;58749;48.022;10.922;2022-08-21T12:56:59;23.70;82.50
6664;DHT22;58749;48.022;10.922;2022-08-21T12:59:29;23.80;85.70
6664;DHT22;58749;48.022;10.922;2022-08-21T13:02:00;23.80;82.30
6664;DHT22;58749;48.022;10.922;2022-08-21T13:04:36;23.80;80.60
6664;DHT22;58749;48.022;10.922;2022-08-21T13:07:09;23.90;85.10
6664;DHT22;58749;48.022;10.922;2022-08-21T13:09:43;23.90;80.40
6664;DHT22;58749;48.022;10.922;2022-08-21T13:12:16;23.90;80.80
6664;DHT22;58749;48.022;10.922;2022-08-21T13:14:45;23.80;79.10
6664;DHT22;58749;48.022;10.922;2022-08-21T13:17:17;23.80;80.10
6664;DHT22;58749;48.022;10.922;2022-08-21T13:19:57;23.70;79.50
6664;DHT22;58749;48.022;10.922;2022-08-21T13:22:26;23.70;86.30
6664;DHT22;58749;48.022;10.922;2022-08-21T13:25:01;23.80;86.50
6664;DHT22;58749;48.022;10.922;2022-08-21T13:27:34;23.90;81.10
6664;DHT22;58749;48.022;10.922;2022-08-21T13:30:09;23.90;82.80
6664;DHT22;58749;48.022;10.922;2022-08-21T13:32:41;23.90;84.80
6664;DHT22;58749;48.022;10.922;2022-08-21T13:35:17;23.90;80.80
6664;DHT22;58749;48.022;10.922;2022-08-21T13:37:47;23.90;81.70
6664;DHT22;58749;48.022;10.922;2022-08-21T13:40:20;23.90;79.90
6664;DHT22;58749;48.022;10.922;2022-08-21T13:42:51;23.90;80.90
6664;DHT22;58749;48.022;10.922;2022-08-21T13:45:24;23.90;83.00
6664;DHT22;58749;48.022;10.922;2022-08-21T13:47:53;24.00;84.00
6664;DHT22;58749;48.022;10.922;2022-08-21T13:50:24;24.00;85.60
6664;DHT22;58749;48.022;10.922;2022-08-21T13:53:02;24.10;85.10
6664;DHT22;58749;48.022;10.922;2022-08-21T13:55:39;24.10;86.10
6664;DHT22;58749;48.022;10.922;2022-08-21T13:58:10;24.10;75.10
6664;DHT22;58749;48.022;10.922;2022-08-21T14:00:45;24.00;74.70
6664;DHT22;58749;48.022;10.922;2022-08-21T14:03:27;24.00;75.90
6664;DHT22;58749;48.022;10.922;2022-08-21T14:05:55;24.10;82.70
6664;DHT22;58749;48.022;10.922;2022-08-21T14:08:32;24.10;77.70
6664;DHT22;58749;48.022;10.922;2022-08-21T14:11:03;24.10;83.30
6664;DHT22;58749;48.022;10.922;2022-08-21T14:13:39;24.10;79.50
6664;DHT22;58749;48.022;10.922;2022-08-21T14:16:16;24.10;78.10
6664;DHT22;58749;48.022;10.922;2022-08-21T14:18:48;24.10;79.30
6664;DHT22;58749;48.022;10.922;2022-08-21T14:21:28;24.20;78.90
6664;DHT22;58749;48.022;10.922;2022-08-21T14:24:04;24.00;76.20
6664;DHT22;58749;48.022;10.922;2022-08-21T14:26:36;24.00;79.30
6664;DHT22;58749;48.022;10.922;2022-08-21T14:29:08;23.90;77.00
6664;DHT22;58749;48.022;10.922;2022-08-21T14:31:37;23.90;81.00
6664;DHT22;58749;48.022;10.922;2022-08-21T14:34:11;24.00;85.50
6664;DHT22;58749;48.022;10.922;2022-08-21T14:36:46;24.00;79.30
6664;DHT22;58749;48.022;10.922;2022-08-21T14:39:14;23.90;76.20
6664;DHT22;58749;48.022;10.922;2022-08-21T14:41:42;23.90;75.40
6664;DHT22;58749;48.022;10.922;2022-08-21T14:44:14;23.80;74.20
6664;DHT22;58749;48.022;10.922;2022-08-21T14:46:43;23.80;75.40
6664;DHT22;58749;48.022;10.922;2022-08-21T14:49:23;23.80;73.80
6664;DHT22;58749;48.022;10.922;2022-08-21T14:51:53;23.80;76.40
6664;DHT22;58749;48.022;10.922;2022-08-21T14:54:25;23.70;73.60
6664;DHT22;58749;48.022;10.922;2022-08-21T14:56:59;23.70;72.40
6664;DHT22;58749;48.022;10.922;2022-08-21T14:59:30;23.60;73.10
6664;DHT22;58749;48.022;10.922;2022-08-21T15:02:00;23.60;74.80
6664;DHT22;58749;48.022;10.922;2022-08-21T15:04:30;23.50;72.90
6664;DHT22;58749;48.022;10.922;2022-08-21T15:06:58;23.50;75.10
6664;DHT22;58749;48.022;10.922;2022-08-21T15:09:26;23.60;74.80
6664;DHT22;58749;48.022;10.922;2022-08-21T15:11:57;23.60;76.30
6664;DHT22;58749;48.022;10.922;2022-08-21T15:14:31;23.50;76.10
6664;DHT22;58749;48.022;10.922;2022-08-21T15:17:00;23.30;76.00
6664;DHT22;58749;48.022;10.922;2022-08-21T15:19:30;23.10;76.20
6664;DHT22;58749;48.022;10.922;2022-08-21T15:21:58;23.10;76.50
6664;DHT22;58749;48.022;10.922;2022-08-21T15:24:27;23.20;75.50
6664;DHT22;58749;48.022;10.922;2022-08-21T15:26:56;23.20;74.40
6664;DHT22;58749;48.022;10.922;2022-08-21T15:29:24;23.30;74.20
6664;DHT22;58749;48.022;10.922;2022-08-21T15:32:02;23.30;74.00
6664;DHT22;58749;48.022;10.922;2022-08-21T15:34:31;23.30;75.30
6664;DHT22;58749;48.022;10.922;2022-08-21T15:36:59;23.40;75.10
6664;DHT22;58749;48.022;10.922;2022-08-21T15:39:28;23.40;76.40
6664;DHT22;58749;48.022;10.922;2022-08-21T15:41:58;23.30;76.20
6664;DHT22;58749;48.022;10.922;2022-08-21T15:44:37;23.30;74.90
6664;DHT22;58749;48.022;10.922;2022-08-21T15:47:12;23.30;73.40
6664;DHT22;58749;48.022;10.922;2022-08-21T15:49:40;23.30;72.10
6664;DHT22;58749;48.022;10.922;2022-08-21T15:52:12;23.20;71.80
6664;DHT22;58749;48.022;10.922;2022-08-21T15:54:40;23.20;70.20
6664;DHT22;58749;48.022;10.922;2022-08-21T15:57:09;23.20;72.40
6664;DHT22;58749;48.022;10.922;2022-08-21T15:59:42;23.10;72.50
6664;DHT22;58749;48.022;10.922;2022-08-21T16:02:13;23.10;72.80
6664;DHT22;58749;48.022;10.922;2022-08-21T16:08:23;23.10;73.10
6664;DHT22;58749;48.022;10.922;2022-08-21T16:10:54;22.90;69.60
6664;DHT22;58749;48.022;10.922;2022-08-21T16:13:27;22.80;70.20
6664;DHT22;58749;48.022;10.922;2022-08-21T16:15:57;22.80;71.30
6664;DHT22;58749;48.022;10.922;2022-08-21T16:18:26;22.80;70.00